Milk And Honey — WDF9265 — position and weather

sailwx.info

Track history (hours):
 
Tides and Currents Weather Stations Pressure Air Temp Water Temp Dewpoint Dewpoint Depression Visibility Wind Speed Wind Dir Waves Ship Positions

Milk And Honey

Owner: EKS Chartering Inc, Parsippany, NJ. More information available from US FCC via Universal Licensing System and Coast Guard Vessel Documentation Center.

Last reported at 2015-Jun-12 20:31 UTC. Time now 2015-Jul-03 21:59 UTC.
Position N 13°49' W 061°04'.
Warning: this ship's position is 21 days out of date.

Length 40 m.

Type: Pleasure craft. MMSI: 367503380.

Date/timePositionNaut miles runAvg speedWind from/ knotsBaromVisibWave heightAir tempDewpointWater temp
2015-Jun-12 20:31N 13°49' W 061°04'  
2015-Jun-05 22:33N 14°11' W 061°01'10 9.7
2015-Jun-05 21:33N 14°20' W 061°05'1 9.9
2015-Jun-05 21:29N 14°20' W 061°06'9 9.7
2015-Jun-05 20:33N 14°29' W 061°09'1110.9
2015-Jun-05 19:33N 14°38' W 061°14'038.4
2015-Jun-05 19:33N 14°39' W 061°14'1111.3
2015-Jun-05 18:33N 14°49' W 061°19'12910.5
2015-Jun-05 06:12N 16°42' W 062°25'7310.8
2015-Jun-04 23:29N 17°43' W 063°06'1011.0
2015-Jun-04 22:32N 17°53' W 063°08'111.5
2015-Jun-04 22:29N 17°54' W 063°08'1010.8
2015-Jun-04 21:33N 18°03' W 063°10'110.8
2015-Jun-04 21:28N 18°05' W 063°10'4 4.7
2015-Jun-04 20:32N 18°04' W 063°05'0 0.0
2015-Jun-04 19:31N 18°04' W 063°05'0 0.0
2015-Jun-04 18:32N 18°04' W 063°05'0 0.0
2015-Jun-04 17:33N 18°04' W 063°05'0 0.0
2015-Jun-04 16:33N 18°04' W 063°05'0 0.0
2015-Jun-04 15:33N 18°04' W 063°05'0 0.0
2015-Jun-04 14:32N 18°04' W 063°05'0 0.0
2015-Jun-04 13:33N 18°04' W 063°05'0 0.0
2015-Jun-04 12:32N 18°04' W 063°05'0 0.0
2015-Jun-04 11:32N 18°04' W 063°05'0 0.0
2015-Jun-04 10:31N 18°04' W 063°05'0 0.0
2015-Jun-04 09:31N 18°04' W 063°05'0 0.0
2015-Jun-04 08:32N 18°04' W 063°05'0 0.0
2015-Jun-04 07:32N 18°04' W 063°05'0 0.0
2015-Jun-04 06:33N 18°04' W 063°05'0 0.0
2015-Jun-04 05:31N 18°04' W 063°05'0 0.0
2015-Jun-04 04:32N 18°04' W 063°05'0 0.0
2015-Jun-04 03:33N 18°04' W 063°05'0 0.0
2015-Jun-04 02:31N 18°04' W 063°05'0 0.0
2015-Jun-04 01:33N 18°04' W 063°05'0 0.0
2015-Jun-04 00:31N 18°04' W 063°05'0 0.0
2015-Jun-03 23:33N 18°04' W 063°05'0 0.0
2015-Jun-03 22:33N 18°04' W 063°05'0 0.0
2015-Jun-03 21:32N 18°04' W 063°05'0 0.0
2015-Jun-03 20:33N 18°04' W 063°05'0 0.0
2015-Jun-03 19:32N 18°04' W 063°05'0 0.0
2015-Jun-03 18:33N 18°04' W 063°05'0 0.0
2015-Jun-03 17:32N 18°04' W 063°05'0 0.0
2015-Jun-03 16:33N 18°04' W 063°05'0 0.0
2015-Jun-03 15:31N 18°04' W 063°05'0 0.0
2015-Jun-03 14:33N 18°04' W 063°05'0 0.0
2015-Jun-03 13:30N 18°04' W 063°05'0 0.0
2015-Jun-03 12:33N 18°04' W 063°05'0 0.0
2015-Jun-03 11:33N 18°04' W 063°05'0 0.0
2015-Jun-03 10:32N 18°04' W 063°05'0 0.0
2015-Jun-03 09:32N 18°04' W 063°05'0 0.0
2015-Jun-03 08:33N 18°04' W 063°05'0 0.0
2015-Jun-03 07:32N 18°04' W 063°05'0 0.0
2015-Jun-03 06:32N 18°04' W 063°05'0 0.0
2015-Jun-03 05:33N 18°04' W 063°05'0 0.0
2015-Jun-03 04:32N 18°04' W 063°05'0 0.0
2015-Jun-03 03:32N 18°04' W 063°05'0 0.0
2015-Jun-03 02:33N 18°04' W 063°05'0 0.0
2015-Jun-03 01:33N 18°04' W 063°05'0 0.0
2015-Jun-03 00:33N 18°04' W 063°05'0 0.0
2015-Jun-02 23:32N 18°04' W 063°05'0 0.0
2015-Jun-02 22:33N 18°04' W 063°05'0 0.0
2015-Jun-02 21:33N 18°04' W 063°05'0 0.0
2015-Jun-02 20:33N 18°04' W 063°05'  
Track history (hours):
 
Tides and Currents Weather Stations Pressure Air Temp Water Temp Dewpoint Dewpoint Depression Visibility Wind Speed Wind Dir Waves Ship Positions

Milk And Honey

Owner: EKS Chartering Inc, Parsippany, NJ. More information available from US FCC via Universal Licensing System and Coast Guard Vessel Documentation Center.

Last reported at 2015-Jun-12 20:31 UTC. Time now 2015-Jul-03 21:59 UTC.
Position N 13°49' W 061°04'.
Warning: this ship's position is 21 days out of date.

Length 40 m.

Type: Pleasure craft. MMSI: 367503380.

Date/timePositionNaut miles runAvg speedWind from/ knotsBaromVisibWave heightAir tempDewpointWater temp
2015-Jun-12 20:31N 13°49' W 061°04'  
2015-Jun-05 22:33N 14°11' W 061°01'10 9.7
2015-Jun-05 21:33N 14°20' W 061°05'1 9.9
2015-Jun-05 21:29N 14°20' W 061°06'9 9.7
2015-Jun-05 20:33N 14°29' W 061°09'1110.9
2015-Jun-05 19:33N 14°38' W 061°14'038.4
2015-Jun-05 19:33N 14°39' W 061°14'1111.3
2015-Jun-05 18:33N 14°49' W 061°19'12910.5
2015-Jun-05 06:12N 16°42' W 062°25'7310.8
2015-Jun-04 23:29N 17°43' W 063°06'1011.0
2015-Jun-04 22:32N 17°53' W 063°08'111.5
2015-Jun-04 22:29N 17°54' W 063°08'1010.8
2015-Jun-04 21:33N 18°03' W 063°10'110.8
2015-Jun-04 21:28N 18°05' W 063°10'4 4.7
2015-Jun-04 20:32N 18°04' W 063°05'0 0.0
2015-Jun-04 19:31N 18°04' W 063°05'0 0.0
2015-Jun-04 18:32N 18°04' W 063°05'0 0.0
2015-Jun-04 17:33N 18°04' W 063°05'0 0.0
2015-Jun-04 16:33N 18°04' W 063°05'0 0.0
2015-Jun-04 15:33N 18°04' W 063°05'0 0.0
2015-Jun-04 14:32N 18°04' W 063°05'0 0.0
2015-Jun-04 13:33N 18°04' W 063°05'0 0.0
2015-Jun-04 12:32N 18°04' W 063°05'0 0.0
2015-Jun-04 11:32N 18°04' W 063°05'0 0.0
2015-Jun-04 10:31N 18°04' W 063°05'0 0.0
2015-Jun-04 09:31N 18°04' W 063°05'0 0.0
2015-Jun-04 08:32N 18°04' W 063°05'0 0.0
2015-Jun-04 07:32N 18°04' W 063°05'0 0.0
2015-Jun-04 06:33N 18°04' W 063°05'0 0.0
2015-Jun-04 05:31N 18°04' W 063°05'0 0.0
2015-Jun-04 04:32N 18°04' W 063°05'0 0.0
2015-Jun-04 03:33N 18°04' W 063°05'0 0.0
2015-Jun-04 02:31N 18°04' W 063°05'0 0.0
2015-Jun-04 01:33N 18°04' W 063°05'0 0.0
2015-Jun-04 00:31N 18°04' W 063°05'0 0.0
2015-Jun-03 23:33N 18°04' W 063°05'0 0.0
2015-Jun-03 22:33N 18°04' W 063°05'0 0.0
2015-Jun-03 21:32N 18°04' W 063°05'0 0.0
2015-Jun-03 20:33N 18°04' W 063°05'0 0.0
2015-Jun-03 19:32N 18°04' W 063°05'0 0.0
2015-Jun-03 18:33N 18°04' W 063°05'0 0.0
2015-Jun-03 17:32N 18°04' W 063°05'0 0.0
2015-Jun-03 16:33N 18°04' W 063°05'0 0.0
2015-Jun-03 15:31N 18°04' W 063°05'0 0.0
2015-Jun-03 14:33N 18°04' W 063°05'0 0.0
2015-Jun-03 13:30N 18°04' W 063°05'0 0.0
2015-Jun-03 12:33N 18°04' W 063°05'0 0.0
2015-Jun-03 11:33N 18°04' W 063°05'0 0.0
2015-Jun-03 10:32N 18°04' W 063°05'0 0.0
2015-Jun-03 09:32N 18°04' W 063°05'0 0.0
2015-Jun-03 08:33N 18°04' W 063°05'0 0.0
2015-Jun-03 07:32N 18°04' W 063°05'0 0.0
2015-Jun-03 06:32N 18°04' W 063°05'0 0.0
2015-Jun-03 05:33N 18°04' W 063°05'0 0.0
2015-Jun-03 04:32N 18°04' W 063°05'0 0.0
2015-Jun-03 03:32N 18°04' W 063°05'0 0.0
2015-Jun-03 02:33N 18°04' W 063°05'0 0.0
2015-Jun-03 01:33N 18°04' W 063°05'0 0.0
2015-Jun-03 00:33N 18°04' W 063°05'0 0.0
2015-Jun-02 23:32N 18°04' W 063°05'0 0.0
2015-Jun-02 22:33N 18°04' W 063°05'0 0.0
2015-Jun-02 21:33N 18°04' W 063°05'0 0.0
2015-Jun-02 20:33N 18°04' W 063°05'  

Dump ship's entire track history